New York, NY

Saat: 03:58 PM EDT Tarih: 21 Ağustos 2014 (GMT -0400)
Murray Hill | Change Station
CLOSE
Current Station
Kişisel Havadurumu İstasyonları
Location: New York, NY
Yükseklik: 98 ft
Nearby Weather Stations

Elev 98 ft 40.75 °N, 73.98 °W | Updated 6 seconds ago

Clear
Açık
75.4
Feels Like 77
N
5.0
Rüzgar Değişken Rüzgar from GGB
Gusts 13.0 mil

Bugün
High -- | Low -- F°
--% Chance of Precip.
Dün
High -- | Low -- F°
Precip. -- inç
6:12 AM 7:45 PM
Hilal, 12% visible
Basınç 30.02 inç
Görüş Uzaklığı 10.0 mil
Bulutlar Açık
Sıcaklık endeksi 77
Çiğ noktası 62
Nem oranı 63%
Yağış 0.18 inç
Kar Kalınlığı Not available.
6 out of 12
Pollen 8.70 out of 12
PM2.5 Temiz
Flu Activity Not available.
METAR KNYC 211951Z AUTO 16008KT 10SM CLR 26/15 A3005 RMK AO2 SLP165 T02560150 $

More Conditions Fewer Conditions

Basınç 30.02 inç
Görüş Uzaklığı 10.0 mil
Bulutlar Açık
Sıcaklık endeksi 77
Çiğ noktası 62
Nem oranı 63%
Yağış 0.18 inç
Kar Kalınlığı Not available.
6 out of 12
Pollen 8.70 out of 12
PM2.5 Temiz
Flu Activity Not available.
METAR KNYC 211951Z AUTO 16008KT 10SM CLR 26/15 A3005 RMK AO2 SLP165 T02560150 $

More Conditions Fewer Conditions

10-Day Weather Forecast

Almanac

Gökbilim

Aug. 21, 2014 Rise Set
Gerçek Zaman 06:12 EDT 19:45 EDT
Günlük Tan 05:43 EDT 20:14 EDT
Deniz Tanı 05:08 EDT 20:48 EDT
Geceyarısı Yıldız Zamanı 04:31 EDT 21:25 EDT
Ay 02:39 EDT 17:12 EDT
Görünür Işığın Uzunluğu 14h 30m
Günün Uzunluğu
13h 33m
Tomorrow will be 2m 29s shorter.
Hilal, 12% of the Moon is Illuminated
Bugün
Hilal
Aug 25
New
Sep 2
İlk Hilãl
Sep 8
Dolunay
Sep 15
Son Hilãl

Günün En Yüksekleri

State Highs State Lows

Community

WunderPhotos

Upload Photos

1,746,010 photos uploaded!

WunderBlogs® & News

Nearby

Hava Kalitesi

  Hava Kalitesi Hava Kalitesi Endeksi Kirletici
Dün Temiz
OZONE
Dün Temiz
PM2.5
Şu anda Temiz
PM2.5
Perşembe Temiz
OZONE
Perşembe Temiz
PM2.5
Cuma Temiz
PM2.5
Cuma Temiz
OZONE

Kar Kalınlığı

Station Depth Yükseklik
No new snow has been reported.

Earthquake Activity

Şehir Distance Mag. Time & Date
No recent earthquake activity has been reported nearby.
Minimum magnitude displayed is 2.5.

Coastal Water Temperatures

Yer Sıcaklık
Sandy Hook, NJ 73.0 F°
The Battery, NY 73.9 F°
Bergen Point West Reach, NJ 73.9 F°

Nearby Weather Stations